sensor_id;sensor_type;location;lat;lon;timestamp;P1;durP1;ratioP1;P2;durP2;ratioP2
8654;SDS011;13500;52.514;13.462;2022-07-29T00:01:18;4.57;;;2.10;;
8654;SDS011;13500;52.514;13.462;2022-07-29T00:03:47;3.07;;;2.37;;
8654;SDS011;13500;52.514;13.462;2022-07-29T00:06:15;2.90;;;2.23;;
8654;SDS011;13500;52.514;13.462;2022-07-29T00:08:43;4.27;;;2.40;;
8654;SDS011;13500;52.514;13.462;2022-07-29T00:11:13;5.63;;;2.83;;
8654;SDS011;13500;52.514;13.462;2022-07-29T00:13:41;5.17;;;2.67;;
8654;SDS011;13500;52.514;13.462;2022-07-29T00:16:16;3.93;;;2.40;;
8654;SDS011;13500;52.514;13.462;2022-07-29T00:18:44;4.07;;;2.30;;
8654;SDS011;13500;52.514;13.462;2022-07-29T00:21:13;4.37;;;2.53;;
8654;SDS011;13500;52.514;13.462;2022-07-29T00:23:41;6.77;;;2.77;;
8654;SDS011;13500;52.514;13.462;2022-07-29T00:26:10;3.37;;;2.40;;
8654;SDS011;13500;52.514;13.462;2022-07-29T00:28:39;4.13;;;2.40;;
8654;SDS011;13500;52.514;13.462;2022-07-29T00:31:07;5.13;;;2.73;;
8654;SDS011;13500;52.514;13.462;2022-07-29T00:33:36;3.33;;;2.77;;
8654;SDS011;13500;52.514;13.462;2022-07-29T00:36:04;3.40;;;2.43;;
8654;SDS011;13500;52.514;13.462;2022-07-29T00:38:32;4.57;;;2.57;;
8654;SDS011;13500;52.514;13.462;2022-07-29T00:41:01;3.20;;;2.83;;
8654;SDS011;13500;52.514;13.462;2022-07-29T00:43:29;3.63;;;2.43;;
8654;SDS011;13500;52.514;13.462;2022-07-29T00:45:59;3.07;;;2.73;;
8654;SDS011;13500;52.514;13.462;2022-07-29T00:48:28;5.43;;;2.60;;
8654;SDS011;13500;52.514;13.462;2022-07-29T00:50:57;2.93;;;2.20;;
8654;SDS011;13500;52.514;13.462;2022-07-29T00:53:27;3.07;;;2.50;;
8654;SDS011;13500;52.514;13.462;2022-07-29T00:55:56;3.30;;;2.40;;
8654;SDS011;13500;52.514;13.462;2022-07-29T00:58:24;3.30;;;2.20;;
8654;SDS011;13500;52.514;13.462;2022-07-29T01:00:54;4.77;;;2.70;;
8654;SDS011;13500;52.514;13.462;2022-07-29T01:03:24;3.90;;;2.67;;
8654;SDS011;13500;52.514;13.462;2022-07-29T01:05:52;3.70;;;2.73;;
8654;SDS011;13500;52.514;13.462;2022-07-29T01:08:21;3.70;;;2.60;;
8654;SDS011;13500;52.514;13.462;2022-07-29T01:10:51;3.80;;;2.50;;
8654;SDS011;13500;52.514;13.462;2022-07-29T01:13:21;4.93;;;2.50;;
8654;SDS011;13500;52.514;13.462;2022-07-29T01:15:51;5.63;;;2.90;;
8654;SDS011;13500;52.514;13.462;2022-07-29T01:18:30;4.30;;;2.53;;
8654;SDS011;13500;52.514;13.462;2022-07-29T01:21:10;3.87;;;2.40;;
8654;SDS011;13500;52.514;13.462;2022-07-29T01:23:54;3.00;;;2.30;;
8654;SDS011;13500;52.514;13.462;2022-07-29T01:26:41;5.63;;;2.57;;
8654;SDS011;13500;52.514;13.462;2022-07-29T01:29:17;3.53;;;2.50;;
8654;SDS011;13500;52.514;13.462;2022-07-29T01:31:58;4.23;;;2.40;;
8654;SDS011;13500;52.514;13.462;2022-07-29T01:34:45;2.80;;;2.43;;
8654;SDS011;13500;52.514;13.462;2022-07-29T01:37:18;3.10;;;2.40;;
8654;SDS011;13500;52.514;13.462;2022-07-29T01:39:52;3.10;;;2.10;;
8654;SDS011;13500;52.514;13.462;2022-07-29T01:42:24;4.80;;;2.60;;
8654;SDS011;13500;52.514;13.462;2022-07-29T01:44:59;2.60;;;2.20;;
8654;SDS011;13500;52.514;13.462;2022-07-29T01:47:34;4.30;;;2.50;;
8654;SDS011;13500;52.514;13.462;2022-07-29T01:50:10;4.47;;;2.47;;
8654;SDS011;13500;52.514;13.462;2022-07-29T01:52:43;4.23;;;2.20;;
8654;SDS011;13500;52.514;13.462;2022-07-29T01:55:16;2.63;;;2.27;;
8654;SDS011;13500;52.514;13.462;2022-07-29T01:57:49;4.73;;;2.40;;
8654;SDS011;13500;52.514;13.462;2022-07-29T02:00:19;3.40;;;2.40;;
8654;SDS011;13500;52.514;13.462;2022-07-29T02:02:50;3.63;;;2.47;;
8654;SDS011;13500;52.514;13.462;2022-07-29T02:05:21;4.60;;;2.57;;
8654;SDS011;13500;52.514;13.462;2022-07-29T02:07:51;3.50;;;2.50;;
8654;SDS011;13500;52.514;13.462;2022-07-29T02:10:21;3.63;;;2.50;;
8654;SDS011;13500;52.514;13.462;2022-07-29T02:12:52;3.83;;;2.50;;
8654;SDS011;13500;52.514;13.462;2022-07-29T02:15:24;3.43;;;2.37;;
8654;SDS011;13500;52.514;13.462;2022-07-29T02:17:55;3.33;;;2.13;;
8654;SDS011;13500;52.514;13.462;2022-07-29T02:20:27;4.67;;;2.40;;
8654;SDS011;13500;52.514;13.462;2022-07-29T02:22:56;2.70;;;2.47;;
8654;SDS011;13500;52.514;13.462;2022-07-29T02:25:26;2.97;;;2.20;;
8654;SDS011;13500;52.514;13.462;2022-07-29T02:28:03;3.20;;;2.30;;
8654;SDS011;13500;52.514;13.462;2022-07-29T02:30:35;3.20;;;2.23;;
8654;SDS011;13500;52.514;13.462;2022-07-29T02:33:07;5.77;;;2.50;;
8654;SDS011;13500;52.514;13.462;2022-07-29T02:35:40;3.63;;;2.20;;
8654;SDS011;13500;52.514;13.462;2022-07-29T02:38:12;2.60;;;2.37;;
8654;SDS011;13500;52.514;13.462;2022-07-29T02:41:01;3.43;;;2.30;;
8654;SDS011;13500;52.514;13.462;2022-07-29T02:43:32;2.77;;;2.10;;
8654;SDS011;13500;52.514;13.462;2022-07-29T02:46:05;3.97;;;2.30;;
8654;SDS011;13500;52.514;13.462;2022-07-29T02:48:55;3.80;;;2.30;;
8654;SDS011;13500;52.514;13.462;2022-07-29T02:51:28;4.33;;;2.10;;
8654;SDS011;13500;52.514;13.462;2022-07-29T02:54:10;5.43;;;2.40;;
8654;SDS011;13500;52.514;13.462;2022-07-29T02:56:44;3.17;;;2.40;;
8654;SDS011;13500;52.514;13.462;2022-07-29T02:59:13;2.43;;;2.07;;
8654;SDS011;13500;52.514;13.462;2022-07-29T03:01:47;3.40;;;2.37;;
8654;SDS011;13500;52.514;13.462;2022-07-29T03:04:16;5.60;;;2.37;;
8654;SDS011;13500;52.514;13.462;2022-07-29T03:06:47;4.10;;;2.20;;
8654;SDS011;13500;52.514;13.462;2022-07-29T03:09:17;2.63;;;2.20;;
8654;SDS011;13500;52.514;13.462;2022-07-29T03:11:46;4.17;;;2.10;;
8654;SDS011;13500;52.514;13.462;2022-07-29T03:14:17;5.47;;;2.30;;
8654;SDS011;13500;52.514;13.462;2022-07-29T03:16:49;3.97;;;2.60;;
8654;SDS011;13500;52.514;13.462;2022-07-29T03:19:19;2.43;;;2.10;;
8654;SDS011;13500;52.514;13.462;2022-07-29T03:21:47;3.83;;;2.30;;
8654;SDS011;13500;52.514;13.462;2022-07-29T03:24:26;4.80;;;2.80;;
8654;SDS011;13500;52.514;13.462;2022-07-29T03:26:56;5.43;;;2.50;;
8654;SDS011;13500;52.514;13.462;2022-07-29T03:29:25;2.73;;;2.27;;
8654;SDS011;13500;52.514;13.462;2022-07-29T03:32:01;4.10;;;2.63;;
8654;SDS011;13500;52.514;13.462;2022-07-29T03:34:34;4.90;;;2.53;;
8654;SDS011;13500;52.514;13.462;2022-07-29T03:37:04;3.33;;;2.37;;
8654;SDS011;13500;52.514;13.462;2022-07-29T03:39:34;2.60;;;2.20;;
8654;SDS011;13500;52.514;13.462;2022-07-29T03:42:08;3.97;;;2.50;;
8654;SDS011;13500;52.514;13.462;2022-07-29T03:44:41;2.83;;;2.27;;
8654;SDS011;13500;52.514;13.462;2022-07-29T03:47:14;3.37;;;2.30;;
8654;SDS011;13500;52.514;13.462;2022-07-29T03:49:47;3.77;;;2.17;;
8654;SDS011;13500;52.514;13.462;2022-07-29T03:52:18;2.57;;;2.37;;
8654;SDS011;13500;52.514;13.462;2022-07-29T03:54:47;2.50;;;2.10;;
8654;SDS011;13500;52.514;13.462;2022-07-29T03:57:16;3.53;;;2.13;;
8654;SDS011;13500;52.514;13.462;2022-07-29T03:59:48;2.20;;;2.00;;
8654;SDS011;13500;52.514;13.462;2022-07-29T04:02:18;3.27;;;2.20;;
8654;SDS011;13500;52.514;13.462;2022-07-29T04:04:52;4.23;;;2.67;;
8654;SDS011;13500;52.514;13.462;2022-07-29T04:07:21;4.37;;;2.70;;
8654;SDS011;13500;52.514;13.462;2022-07-29T04:09:49;5.37;;;2.40;;
8654;SDS011;13500;52.514;13.462;2022-07-29T04:12:18;3.77;;;2.37;;
8654;SDS011;13500;52.514;13.462;2022-07-29T04:14:47;5.53;;;2.53;;
8654;SDS011;13500;52.514;13.462;2022-07-29T04:17:17;3.73;;;2.23;;
8654;SDS011;13500;52.514;13.462;2022-07-29T04:19:46;4.80;;;2.70;;
8654;SDS011;13500;52.514;13.462;2022-07-29T04:22:14;4.40;;;2.37;;
8654;SDS011;13500;52.514;13.462;2022-07-29T04:24:43;4.83;;;2.30;;
8654;SDS011;13500;52.514;13.462;2022-07-29T04:27:11;4.23;;;2.50;;
8654;SDS011;13500;52.514;13.462;2022-07-29T04:29:39;6.37;;;2.97;;
8654;SDS011;13500;52.514;13.462;2022-07-29T04:32:24;7.17;;;2.73;;
8654;SDS011;13500;52.514;13.462;2022-07-29T04:34:53;4.47;;;2.37;;
8654;SDS011;13500;52.514;13.462;2022-07-29T04:37:21;3.80;;;2.40;;
8654;SDS011;13500;52.514;13.462;2022-07-29T04:39:49;4.20;;;2.40;;
8654;SDS011;13500;52.514;13.462;2022-07-29T04:42:17;5.77;;;2.50;;
8654;SDS011;13500;52.514;13.462;2022-07-29T04:44:54;4.03;;;2.40;;
8654;SDS011;13500;52.514;13.462;2022-07-29T04:47:28;3.77;;;2.33;;
8654;SDS011;13500;52.514;13.462;2022-07-29T04:49:56;3.83;;;2.30;;
8654;SDS011;13500;52.514;13.462;2022-07-29T04:52:25;3.60;;;2.20;;
8654;SDS011;13500;52.514;13.462;2022-07-29T04:54:53;5.93;;;2.03;;
8654;SDS011;13500;52.514;13.462;2022-07-29T04:57:22;2.83;;;2.40;;
8654;SDS011;13500;52.514;13.462;2022-07-29T04:59:50;2.80;;;2.40;;
8654;SDS011;13500;52.514;13.462;2022-07-29T05:02:18;2.73;;;2.10;;
8654;SDS011;13500;52.514;13.462;2022-07-29T05:04:49;2.33;;;2.07;;
8654;SDS011;13500;52.514;13.462;2022-07-29T05:07:18;3.80;;;2.20;;
8654;SDS011;13500;52.514;13.462;2022-07-29T05:09:46;4.03;;;2.10;;
8654;SDS011;13500;52.514;13.462;2022-07-29T05:12:15;4.13;;;2.00;;
8654;SDS011;13500;52.514;13.462;2022-07-29T05:14:43;4.23;;;2.37;;
8654;SDS011;13500;52.514;13.462;2022-07-29T05:17:12;3.37;;;2.50;;
8654;SDS011;13500;52.514;13.462;2022-07-29T05:19:40;3.63;;;1.93;;
8654;SDS011;13500;52.514;13.462;2022-07-29T05:22:10;3.17;;;2.10;;
8654;SDS011;13500;52.514;13.462;2022-07-29T05:24:38;6.17;;;2.70;;
8654;SDS011;13500;52.514;13.462;2022-07-29T05:27:07;2.50;;;2.10;;
8654;SDS011;13500;52.514;13.462;2022-07-29T05:29:35;2.80;;;1.90;;
8654;SDS011;13500;52.514;13.462;2022-07-29T05:32:11;2.57;;;1.90;;
8654;SDS011;13500;52.514;13.462;2022-07-29T05:34:39;2.67;;;1.90;;
8654;SDS011;13500;52.514;13.462;2022-07-29T05:37:19;3.87;;;2.50;;
8654;SDS011;13500;52.514;13.462;2022-07-29T05:39:47;5.10;;;2.27;;
8654;SDS011;13500;52.514;13.462;2022-07-29T05:42:22;4.77;;;2.40;;
8654;SDS011;13500;52.514;13.462;2022-07-29T05:47:20;2.40;;;2.20;;
8654;SDS011;13500;52.514;13.462;2022-07-29T05:49:48;4.97;;;2.10;;
8654;SDS011;13500;52.514;13.462;2022-07-29T05:52:18;2.73;;;2.07;;
8654;SDS011;13500;52.514;13.462;2022-07-29T05:54:46;6.73;;;2.43;;
8654;SDS011;13500;52.514;13.462;2022-07-29T05:57:15;3.17;;;2.30;;
8654;SDS011;13500;52.514;13.462;2022-07-29T05:59:44;3.37;;;1.97;;
8654;SDS011;13500;52.514;13.462;2022-07-29T06:02:12;5.60;;;2.30;;
8654;SDS011;13500;52.514;13.462;2022-07-29T06:04:41;2.53;;;2.13;;
8654;SDS011;13500;52.514;13.462;2022-07-29T06:07:09;3.07;;;2.20;;
8654;SDS011;13500;52.514;13.462;2022-07-29T06:09:39;5.23;;;2.50;;
8654;SDS011;13500;52.514;13.462;2022-07-29T06:12:07;3.60;;;2.60;;
8654;SDS011;13500;52.514;13.462;2022-07-29T06:14:36;5.03;;;2.23;;
8654;SDS011;13500;52.514;13.462;2022-07-29T06:17:05;4.23;;;2.00;;
8654;SDS011;13500;52.514;13.462;2022-07-29T06:19:33;7.00;;;2.67;;
8654;SDS011;13500;52.514;13.462;2022-07-29T06:22:03;4.00;;;2.40;;
8654;SDS011;13500;52.514;13.462;2022-07-29T06:24:31;2.33;;;1.83;;
8654;SDS011;13500;52.514;13.462;2022-07-29T06:27:01;3.03;;;2.10;;
8654;SDS011;13500;52.514;13.462;2022-07-29T06:29:29;2.47;;;2.10;;
8654;SDS011;13500;52.514;13.462;2022-07-29T06:31:58;5.80;;;2.30;;
8654;SDS011;13500;52.514;13.462;2022-07-29T06:34:26;3.20;;;2.10;;
8654;SDS011;13500;52.514;13.462;2022-07-29T06:36:54;4.73;;;2.23;;
8654;SDS011;13500;52.514;13.462;2022-07-29T06:39:23;2.70;;;2.20;;
8654;SDS011;13500;52.514;13.462;2022-07-29T06:41:51;3.23;;;2.40;;
8654;SDS011;13500;52.514;13.462;2022-07-29T06:44:25;4.13;;;2.00;;
8654;SDS011;13500;52.514;13.462;2022-07-29T06:46:53;4.50;;;2.10;;
8654;SDS011;13500;52.514;13.462;2022-07-29T06:49:21;3.40;;;1.80;;
8654;SDS011;13500;52.514;13.462;2022-07-29T06:51:51;2.87;;;2.23;;
8654;SDS011;13500;52.514;13.462;2022-07-29T06:54:19;3.33;;;1.90;;
8654;SDS011;13500;52.514;13.462;2022-07-29T06:56:48;6.57;;;2.00;;
8654;SDS011;13500;52.514;13.462;2022-07-29T06:59:16;2.80;;;2.07;;
8654;SDS011;13500;52.514;13.462;2022-07-29T07:01:51;3.73;;;2.20;;
8654;SDS011;13500;52.514;13.462;2022-07-29T07:04:19;2.90;;;1.90;;
8654;SDS011;13500;52.514;13.462;2022-07-29T07:06:48;2.57;;;1.90;;
8654;SDS011;13500;52.514;13.462;2022-07-29T07:09:16;3.10;;;2.20;;
8654;SDS011;13500;52.514;13.462;2022-07-29T07:11:44;2.03;;;1.67;;
8654;SDS011;13500;52.514;13.462;2022-07-29T07:14:15;2.63;;;2.10;;
8654;SDS011;13500;52.514;13.462;2022-07-29T07:16:44;3.67;;;2.13;;
8654;SDS011;13500;52.514;13.462;2022-07-29T07:19:14;3.43;;;2.30;;
8654;SDS011;13500;52.514;13.462;2022-07-29T07:21:44;2.90;;;2.10;;
8654;SDS011;13500;52.514;13.462;2022-07-29T07:24:12;5.17;;;2.30;;
8654;SDS011;13500;52.514;13.462;2022-07-29T07:26:42;2.00;;;1.80;;
8654;SDS011;13500;52.514;13.462;2022-07-29T07:29:10;5.17;;;2.27;;
8654;SDS011;13500;52.514;13.462;2022-07-29T07:31:39;3.63;;;2.03;;
8654;SDS011;13500;52.514;13.462;2022-07-29T07:34:08;3.40;;;1.77;;
8654;SDS011;13500;52.514;13.462;2022-07-29T07:36:37;6.10;;;2.10;;
8654;SDS011;13500;52.514;13.462;2022-07-29T07:39:06;2.10;;;1.90;;
8654;SDS011;13500;52.514;13.462;2022-07-29T07:41:34;3.63;;;2.07;;
8654;SDS011;13500;52.514;13.462;2022-07-29T07:44:02;5.33;;;2.03;;
8654;SDS011;13500;52.514;13.462;2022-07-29T07:46:31;3.13;;;1.83;;
8654;SDS011;13500;52.514;13.462;2022-07-29T07:48:59;2.40;;;2.03;;
8654;SDS011;13500;52.514;13.462;2022-07-29T07:51:28;4.53;;;2.27;;
8654;SDS011;13500;52.514;13.462;2022-07-29T07:53:58;2.23;;;1.73;;
8654;SDS011;13500;52.514;13.462;2022-07-29T07:56:28;2.93;;;2.07;;
8654;SDS011;13500;52.514;13.462;2022-07-29T07:59:00;2.80;;;1.93;;
8654;SDS011;13500;52.514;13.462;2022-07-29T08:01:29;5.17;;;2.03;;
8654;SDS011;13500;52.514;13.462;2022-07-29T08:04:17;1.80;;;1.70;;
8654;SDS011;13500;52.514;13.462;2022-07-29T08:06:53;2.17;;;1.80;;
8654;SDS011;13500;52.514;13.462;2022-07-29T08:09:23;2.13;;;1.73;;
8654;SDS011;13500;52.514;13.462;2022-07-29T08:11:55;2.20;;;1.87;;
8654;SDS011;13500;52.514;13.462;2022-07-29T08:14:25;2.20;;;1.63;;
8654;SDS011;13500;52.514;13.462;2022-07-29T08:16:53;2.50;;;2.13;;
8654;SDS011;13500;52.514;13.462;2022-07-29T08:19:21;3.60;;;1.90;;
8654;SDS011;13500;52.514;13.462;2022-07-29T08:21:49;2.50;;;1.80;;
8654;SDS011;13500;52.514;13.462;2022-07-29T08:24:20;2.40;;;2.10;;
8654;SDS011;13500;52.514;13.462;2022-07-29T08:27:08;2.47;;;1.90;;
8654;SDS011;13500;52.514;13.462;2022-07-29T08:29:57;3.43;;;2.03;;
8654;SDS011;13500;52.514;13.462;2022-07-29T08:32:25;2.93;;;1.80;;
8654;SDS011;13500;52.514;13.462;2022-07-29T08:35:14;3.17;;;2.37;;
8654;SDS011;13500;52.514;13.462;2022-07-29T08:37:43;1.80;;;1.70;;
8654;SDS011;13500;52.514;13.462;2022-07-29T08:40:11;2.03;;;1.83;;
8654;SDS011;13500;52.514;13.462;2022-07-29T08:42:41;2.50;;;2.00;;
8654;SDS011;13500;52.514;13.462;2022-07-29T08:45:10;3.57;;;2.40;;
8654;SDS011;13500;52.514;13.462;2022-07-29T08:47:39;2.50;;;1.70;;
8654;SDS011;13500;52.514;13.462;2022-07-29T08:50:07;4.70;;;2.00;;
8654;SDS011;13500;52.514;13.462;2022-07-29T08:52:37;5.63;;;2.00;;
8654;SDS011;13500;52.514;13.462;2022-07-29T08:55:07;2.80;;;1.87;;
8654;SDS011;13500;52.514;13.462;2022-07-29T08:57:37;2.07;;;1.87;;
8654;SDS011;13500;52.514;13.462;2022-07-29T09:00:21;2.20;;;1.80;;
8654;SDS011;13500;52.514;13.462;2022-07-29T09:02:54;2.07;;;1.70;;
8654;SDS011;13500;52.514;13.462;2022-07-29T09:05:25;2.13;;;1.93;;
8654;SDS011;13500;52.514;13.462;2022-07-29T09:07:54;3.80;;;1.90;;
8654;SDS011;13500;52.514;13.462;2022-07-29T09:10:23;2.40;;;1.73;;
8654;SDS011;13500;52.514;13.462;2022-07-29T09:12:52;2.17;;;1.80;;
8654;SDS011;13500;52.514;13.462;2022-07-29T09:15:23;2.40;;;1.63;;
8654;SDS011;13500;52.514;13.462;2022-07-29T09:17:52;4.07;;;2.00;;
8654;SDS011;13500;52.514;13.462;2022-07-29T09:20:22;2.00;;;1.80;;
8654;SDS011;13500;52.514;13.462;2022-07-29T09:22:51;2.07;;;1.70;;
8654;SDS011;13500;52.514;13.462;2022-07-29T09:25:32;2.63;;;1.73;;
8654;SDS011;13500;52.514;13.462;2022-07-29T09:28:07;2.50;;;1.47;;
8654;SDS011;13500;52.514;13.462;2022-07-29T09:30:41;1.60;;;1.50;;
8654;SDS011;13500;52.514;13.462;2022-07-29T09:33:18;2.40;;;2.20;;
8654;SDS011;13500;52.514;13.462;2022-07-29T09:35:58;2.17;;;1.80;;
8654;SDS011;13500;52.514;13.462;2022-07-29T09:38:27;2.03;;;1.47;;
8654;SDS011;13500;52.514;13.462;2022-07-29T09:40:56;3.97;;;1.77;;
8654;SDS011;13500;52.514;13.462;2022-07-29T09:43:31;2.27;;;1.50;;
8654;SDS011;13500;52.514;13.462;2022-07-29T09:46:11;3.17;;;1.80;;
8654;SDS011;13500;52.514;13.462;2022-07-29T09:48:40;2.77;;;1.30;;
8654;SDS011;13500;52.514;13.462;2022-07-29T09:51:16;4.43;;;1.70;;
8654;SDS011;13500;52.514;13.462;2022-07-29T09:53:52;2.60;;;2.10;;
8654;SDS011;13500;52.514;13.462;2022-07-29T09:56:21;4.17;;;2.33;;
8654;SDS011;13500;52.514;13.462;2022-07-29T09:59:06;2.63;;;2.03;;
8654;SDS011;13500;52.514;13.462;2022-07-29T10:01:36;2.10;;;1.73;;
8654;SDS011;13500;52.514;13.462;2022-07-29T10:04:05;1.60;;;1.50;;
8654;SDS011;13500;52.514;13.462;2022-07-29T10:06:33;2.77;;;1.80;;
8654;SDS011;13500;52.514;13.462;2022-07-29T10:09:08;2.27;;;1.83;;
8654;SDS011;13500;52.514;13.462;2022-07-29T10:11:36;2.53;;;1.60;;
8654;SDS011;13500;52.514;13.462;2022-07-29T10:14:15;3.50;;;1.63;;
8654;SDS011;13500;52.514;13.462;2022-07-29T10:16:45;3.57;;;1.63;;
8654;SDS011;13500;52.514;13.462;2022-07-29T10:19:14;1.37;;;1.27;;
8654;SDS011;13500;52.514;13.462;2022-07-29T10:21:42;3.47;;;1.67;;
8654;SDS011;13500;52.514;13.462;2022-07-29T10:24:11;1.73;;;1.53;;
8654;SDS011;13500;52.514;13.462;2022-07-29T10:26:40;3.33;;;1.80;;
8654;SDS011;13500;52.514;13.462;2022-07-29T10:29:09;4.60;;;1.70;;
8654;SDS011;13500;52.514;13.462;2022-07-29T10:31:39;1.70;;;1.60;;
8654;SDS011;13500;52.514;13.462;2022-07-29T10:34:19;2.57;;;1.77;;
8654;SDS011;13500;52.514;13.462;2022-07-29T10:36:54;3.07;;;1.80;;
8654;SDS011;13500;52.514;13.462;2022-07-29T10:39:35;1.47;;;1.37;;
8654;SDS011;13500;52.514;13.462;2022-07-29T10:42:17;2.00;;;1.60;;
8654;SDS011;13500;52.514;13.462;2022-07-29T10:45:00;1.87;;;1.50;;
8654;SDS011;13500;52.514;13.462;2022-07-29T10:47:32;1.90;;;1.30;;
8654;SDS011;13500;52.514;13.462;2022-07-29T10:50:02;2.73;;;1.63;;
8654;SDS011;13500;52.514;13.462;2022-07-29T10:55:34;1.70;;;1.60;;
8654;SDS011;13500;52.514;13.462;2022-07-29T10:58:13;2.13;;;1.53;;
8654;SDS011;13500;52.514;13.462;2022-07-29T11:00:44;2.47;;;1.80;;
8654;SDS011;13500;52.514;13.462;2022-07-29T11:06:18;2.67;;;1.87;;
8654;SDS011;13500;52.514;13.462;2022-07-29T11:12:03;2.40;;;1.97;;
8654;SDS011;13500;52.514;13.462;2022-07-29T11:14:56;1.93;;;1.83;;
8654;SDS011;13500;52.514;13.462;2022-07-29T11:17:27;3.77;;;1.67;;
8654;SDS011;13500;52.514;13.462;2022-07-29T11:20:33;1.93;;;1.63;;
8654;SDS011;13500;52.514;13.462;2022-07-29T11:23:17;2.10;;;1.77;;
8654;SDS011;13500;52.514;13.462;2022-07-29T11:25:54;2.20;;;1.50;;
8654;SDS011;13500;52.514;13.462;2022-07-29T11:28:48;2.63;;;2.00;;
8654;SDS011;13500;52.514;13.462;2022-07-29T11:31:31;2.00;;;1.70;;
8654;SDS011;13500;52.514;13.462;2022-07-29T11:34:18;2.10;;;1.70;;
8654;SDS011;13500;52.514;13.462;2022-07-29T11:40:11;1.80;;;1.70;;
8654;SDS011;13500;52.514;13.462;2022-07-29T11:42:44;2.70;;;1.90;;
8654;SDS011;13500;52.514;13.462;2022-07-29T11:45:21;2.37;;;2.17;;
8654;SDS011;13500;52.514;13.462;2022-07-29T11:48:15;1.73;;;1.57;;
8654;SDS011;13500;52.514;13.462;2022-07-29T11:50:58;3.57;;;1.73;;
8654;SDS011;13500;52.514;13.462;2022-07-29T11:53:29;2.43;;;2.00;;
8654;SDS011;13500;52.514;13.462;2022-07-29T11:55:59;2.43;;;2.00;;
8654;SDS011;13500;52.514;13.462;2022-07-29T11:58:29;4.00;;;3.30;;
8654;SDS011;13500;52.514;13.462;2022-07-29T12:00:59;3.97;;;2.20;;
8654;SDS011;13500;52.514;13.462;2022-07-29T12:03:30;3.10;;;2.03;;
8654;SDS011;13500;52.514;13.462;2022-07-29T12:06:02;3.63;;;2.20;;
8654;SDS011;13500;52.514;13.462;2022-07-29T12:08:42;3.53;;;1.80;;
8654;SDS011;13500;52.514;13.462;2022-07-29T12:11:18;3.50;;;2.23;;
8654;SDS011;13500;52.514;13.462;2022-07-29T12:13:49;4.90;;;2.30;;
8654;SDS011;13500;52.514;13.462;2022-07-29T12:16:18;3.13;;;2.00;;
8654;SDS011;13500;52.514;13.462;2022-07-29T12:18:55;3.63;;;2.27;;
8654;SDS011;13500;52.514;13.462;2022-07-29T12:21:25;2.70;;;2.03;;
8654;SDS011;13500;52.514;13.462;2022-07-29T12:23:56;2.70;;;2.30;;
8654;SDS011;13500;52.514;13.462;2022-07-29T12:26:35;4.27;;;2.17;;
8654;SDS011;13500;52.514;13.462;2022-07-29T12:29:06;3.00;;;2.23;;
8654;SDS011;13500;52.514;13.462;2022-07-29T12:31:45;5.87;;;2.53;;
8654;SDS011;13500;52.514;13.462;2022-07-29T12:34:23;2.73;;;2.00;;
8654;SDS011;13500;52.514;13.462;2022-07-29T12:36:54;2.53;;;2.20;;
8654;SDS011;13500;52.514;13.462;2022-07-29T12:39:24;3.97;;;2.23;;
8654;SDS011;13500;52.514;13.462;2022-07-29T12:41:54;3.63;;;2.53;;
8654;SDS011;13500;52.514;13.462;2022-07-29T12:44:43;2.93;;;2.20;;
8654;SDS011;13500;52.514;13.462;2022-07-29T12:47:12;3.40;;;2.00;;
8654;SDS011;13500;52.514;13.462;2022-07-29T12:49:40;3.63;;;2.53;;
8654;SDS011;13500;52.514;13.462;2022-07-29T12:52:27;2.97;;;2.30;;
8654;SDS011;13500;52.514;13.462;2022-07-29T12:54:58;2.10;;;1.90;;
8654;SDS011;13500;52.514;13.462;2022-07-29T12:57:27;2.30;;;2.10;;
8654;SDS011;13500;52.514;13.462;2022-07-29T13:02:42;6.50;;;2.80;;
8654;SDS011;13500;52.514;13.462;2022-07-29T13:05:11;2.80;;;2.40;;
8654;SDS011;13500;52.514;13.462;2022-07-29T13:07:40;2.20;;;1.90;;
8654;SDS011;13500;52.514;13.462;2022-07-29T13:10:24;2.93;;;2.40;;
8654;SDS011;13500;52.514;13.462;2022-07-29T13:13:05;3.20;;;2.07;;
8654;SDS011;13500;52.514;13.462;2022-07-29T13:15:36;2.93;;;2.40;;
8654;SDS011;13500;52.514;13.462;2022-07-29T13:18:05;3.13;;;2.23;;
8654;SDS011;13500;52.514;13.462;2022-07-29T13:20:54;2.30;;;2.10;;
8654;SDS011;13500;52.514;13.462;2022-07-29T13:23:23;2.87;;;2.37;;
8654;SDS011;13500;52.514;13.462;2022-07-29T13:25:52;2.67;;;2.10;;
8654;SDS011;13500;52.514;13.462;2022-07-29T13:28:21;3.30;;;2.20;;
8654;SDS011;13500;52.514;13.462;2022-07-29T13:30:49;2.60;;;2.40;;
8654;SDS011;13500;52.514;13.462;2022-07-29T13:33:18;4.10;;;2.37;;
8654;SDS011;13500;52.514;13.462;2022-07-29T13:35:46;2.50;;;2.30;;
8654;SDS011;13500;52.514;13.462;2022-07-29T13:38:15;2.87;;;2.27;;
8654;SDS011;13500;52.514;13.462;2022-07-29T13:40:43;2.80;;;2.20;;
8654;SDS011;13500;52.514;13.462;2022-07-29T13:43:13;2.20;;;2.00;;
8654;SDS011;13500;52.514;13.462;2022-07-29T13:45:41;3.77;;;2.27;;
8654;SDS011;13500;52.514;13.462;2022-07-29T13:48:10;2.40;;;2.20;;
8654;SDS011;13500;52.514;13.462;2022-07-29T13:50:38;2.50;;;2.30;;
8654;SDS011;13500;52.514;13.462;2022-07-29T13:53:07;3.37;;;2.50;;
8654;SDS011;13500;52.514;13.462;2022-07-29T13:55:43;3.73;;;2.50;;
8654;SDS011;13500;52.514;13.462;2022-07-29T13:58:12;3.00;;;2.70;;
8654;SDS011;13500;52.514;13.462;2022-07-29T14:00:41;2.50;;;2.30;;
8654;SDS011;13500;52.514;13.462;2022-07-29T14:03:09;2.30;;;2.10;;
8654;SDS011;13500;52.514;13.462;2022-07-29T14:05:37;2.60;;;2.30;;
8654;SDS011;13500;52.514;13.462;2022-07-29T14:08:06;2.40;;;2.07;;
8654;SDS011;13500;52.514;13.462;2022-07-29T14:10:34;2.33;;;2.13;;
8654;SDS011;13500;52.514;13.462;2022-07-29T14:13:02;3.20;;;2.43;;
8654;SDS011;13500;52.514;13.462;2022-07-29T14:15:51;3.27;;;2.97;;
8654;SDS011;13500;52.514;13.462;2022-07-29T14:18:20;2.90;;;2.60;;
8654;SDS011;13500;52.514;13.462;2022-07-29T14:20:48;2.93;;;2.53;;
8654;SDS011;13500;52.514;13.462;2022-07-29T14:23:17;2.77;;;2.57;;
8654;SDS011;13500;52.514;13.462;2022-07-29T14:25:46;2.80;;;2.60;;
8654;SDS011;13500;52.514;13.462;2022-07-29T14:28:15;3.57;;;2.80;;
8654;SDS011;13500;52.514;13.462;2022-07-29T14:30:43;3.60;;;2.80;;
8654;SDS011;13500;52.514;13.462;2022-07-29T14:33:13;2.60;;;2.40;;
8654;SDS011;13500;52.514;13.462;2022-07-29T14:35:41;2.67;;;2.20;;
8654;SDS011;13500;52.514;13.462;2022-07-29T14:38:10;3.43;;;3.00;;
8654;SDS011;13500;52.514;13.462;2022-07-29T14:40:38;3.00;;;2.60;;
8654;SDS011;13500;52.514;13.462;2022-07-29T14:43:07;4.07;;;2.60;;
8654;SDS011;13500;52.514;13.462;2022-07-29T14:45:35;2.37;;;2.17;;
8654;SDS011;13500;52.514;13.462;2022-07-29T14:48:03;4.27;;;2.30;;
8654;SDS011;13500;52.514;13.462;2022-07-29T14:50:33;2.83;;;2.50;;
8654;SDS011;13500;52.514;13.462;2022-07-29T14:53:02;2.90;;;2.40;;
8654;SDS011;13500;52.514;13.462;2022-07-29T14:55:30;3.57;;;2.50;;
8654;SDS011;13500;52.514;13.462;2022-07-29T14:57:59;2.57;;;2.37;;
8654;SDS011;13500;52.514;13.462;2022-07-29T15:00:37;3.13;;;2.83;;
8654;SDS011;13500;52.514;13.462;2022-07-29T15:03:06;3.77;;;2.83;;
8654;SDS011;13500;52.514;13.462;2022-07-29T15:05:38;2.73;;;2.50;;
8654;SDS011;13500;52.514;13.462;2022-07-29T15:08:06;3.13;;;2.30;;
8654;SDS011;13500;52.514;13.462;2022-07-29T15:10:35;2.77;;;2.37;;
8654;SDS011;13500;52.514;13.462;2022-07-29T15:13:04;2.30;;;2.10;;
8654;SDS011;13500;52.514;13.462;2022-07-29T15:15:32;3.90;;;2.40;;
8654;SDS011;13500;52.514;13.462;2022-07-29T15:18:00;2.87;;;2.67;;
8654;SDS011;13500;52.514;13.462;2022-07-29T15:20:29;3.20;;;2.70;;
8654;SDS011;13500;52.514;13.462;2022-07-29T15:22:59;2.63;;;2.43;;
8654;SDS011;13500;52.514;13.462;2022-07-29T15:25:27;3.00;;;2.80;;
8654;SDS011;13500;52.514;13.462;2022-07-29T15:27:56;2.80;;;2.50;;
8654;SDS011;13500;52.514;13.462;2022-07-29T15:30:27;5.00;;;2.50;;
8654;SDS011;13500;52.514;13.462;2022-07-29T15:33:00;2.40;;;2.20;;